sensor_id;sensor_type;location;lat;lon;timestamp;P1;durP1;ratioP1;P2;durP2;ratioP2
75408;SDS011;63979;55.644;37.734;2024-03-29T00:03:33;12.05;;;5.80;;
75408;SDS011;63979;55.644;37.734;2024-03-29T00:08:34;12.25;;;5.65;;
75408;SDS011;63979;55.644;37.734;2024-03-29T00:13:35;16.25;;;5.78;;
75408;SDS011;63979;55.644;37.734;2024-03-29T00:18:36;9.73;;;5.63;;
75408;SDS011;63979;55.644;37.734;2024-03-29T00:23:36;13.77;;;5.65;;
75408;SDS011;63979;55.644;37.734;2024-03-29T00:28:38;13.55;;;5.18;;
75408;SDS011;63979;55.644;37.734;2024-03-29T00:33:39;16.02;;;6.57;;
75408;SDS011;63979;55.644;37.734;2024-03-29T00:38:40;15.02;;;6.78;;
75408;SDS011;63979;55.644;37.734;2024-03-29T00:43:41;14.40;;;5.82;;
75408;SDS011;63979;55.644;37.734;2024-03-29T00:48:42;15.88;;;6.53;;
75408;SDS011;63979;55.644;37.734;2024-03-29T00:53:44;13.23;;;6.93;;
75408;SDS011;63979;55.644;37.734;2024-03-29T00:58:45;11.98;;;5.25;;
75408;SDS011;63979;55.644;37.734;2024-03-29T01:03:46;14.63;;;6.40;;
75408;SDS011;63979;55.644;37.734;2024-03-29T01:08:47;15.60;;;6.82;;
75408;SDS011;63979;55.644;37.734;2024-03-29T01:13:48;14.90;;;6.55;;
75408;SDS011;63979;55.644;37.734;2024-03-29T01:18:49;17.67;;;6.35;;
75408;SDS011;63979;55.644;37.734;2024-03-29T01:23:52;15.75;;;7.57;;
75408;SDS011;63979;55.644;37.734;2024-03-29T01:28:53;14.63;;;6.43;;
75408;SDS011;63979;55.644;37.734;2024-03-29T01:33:54;16.02;;;8.20;;
75408;SDS011;63979;55.644;37.734;2024-03-29T01:38:58;11.60;;;5.75;;
75408;SDS011;63979;55.644;37.734;2024-03-29T01:43:59;23.17;;;8.55;;
75408;SDS011;63979;55.644;37.734;2024-03-29T01:48:59;13.32;;;6.88;;
75408;SDS011;63979;55.644;37.734;2024-03-29T01:54:00;13.38;;;6.15;;
75408;SDS011;63979;55.644;37.734;2024-03-29T01:59:02;12.73;;;6.82;;
75408;SDS011;63979;55.644;37.734;2024-03-29T02:04:04;19.30;;;7.18;;
75408;SDS011;63979;55.644;37.734;2024-03-29T02:09:05;18.45;;;6.90;;
75408;SDS011;63979;55.644;37.734;2024-03-29T02:14:06;14.45;;;7.00;;
75408;SDS011;63979;55.644;37.734;2024-03-29T02:19:07;13.75;;;6.60;;
75408;SDS011;63979;55.644;37.734;2024-03-29T02:24:09;18.15;;;7.30;;
75408;SDS011;63979;55.644;37.734;2024-03-29T02:29:10;11.90;;;6.05;;
75408;SDS011;63979;55.644;37.734;2024-03-29T02:34:12;14.90;;;6.72;;
75408;SDS011;63979;55.644;37.734;2024-03-29T02:39:13;12.50;;;6.55;;
75408;SDS011;63979;55.644;37.734;2024-03-29T02:44:14;14.63;;;6.97;;
75408;SDS011;63979;55.644;37.734;2024-03-29T02:49:16;14.63;;;6.45;;
75408;SDS011;63979;55.644;37.734;2024-03-29T02:54:17;15.68;;;6.55;;
75408;SDS011;63979;55.644;37.734;2024-03-29T02:59:18;19.27;;;6.85;;
75408;SDS011;63979;55.644;37.734;2024-03-29T03:04:19;18.30;;;6.20;;
75408;SDS011;63979;55.644;37.734;2024-03-29T03:09:20;12.93;;;6.25;;
75408;SDS011;63979;55.644;37.734;2024-03-29T03:14:41;12.90;;;7.05;;
75408;SDS011;63979;55.644;37.734;2024-03-29T03:19:42;11.75;;;6.72;;
75408;SDS011;63979;55.644;37.734;2024-03-29T03:24:43;11.38;;;5.28;;
75408;SDS011;63979;55.644;37.734;2024-03-29T03:29:44;14.95;;;6.25;;
75408;SDS011;63979;55.644;37.734;2024-03-29T03:34:46;11.35;;;6.68;;
75408;SDS011;63979;55.644;37.734;2024-03-29T03:39:46;12.65;;;6.65;;
75408;SDS011;63979;55.644;37.734;2024-03-29T03:44:48;11.30;;;5.35;;
75408;SDS011;63979;55.644;37.734;2024-03-29T03:49:49;10.55;;;5.03;;
75408;SDS011;63979;55.644;37.734;2024-03-29T03:54:50;13.98;;;6.47;;
75408;SDS011;63979;55.644;37.734;2024-03-29T03:59:50;13.55;;;7.10;;
75408;SDS011;63979;55.644;37.734;2024-03-29T04:04:51;9.48;;;5.28;;
75408;SDS011;63979;55.644;37.734;2024-03-29T04:09:52;11.98;;;6.45;;
75408;SDS011;63979;55.644;37.734;2024-03-29T04:14:53;12.40;;;5.90;;
75408;SDS011;63979;55.644;37.734;2024-03-29T04:19:54;12.88;;;6.25;;
75408;SDS011;63979;55.644;37.734;2024-03-29T04:24:55;9.57;;;4.97;;
75408;SDS011;63979;55.644;37.734;2024-03-29T04:29:56;8.75;;;4.93;;
75408;SDS011;63979;55.644;37.734;2024-03-29T04:34:57;11.73;;;5.50;;
75408;SDS011;63979;55.644;37.734;2024-03-29T04:39:57;15.63;;;5.25;;
75408;SDS011;63979;55.644;37.734;2024-03-29T04:44:58;7.80;;;4.38;;
75408;SDS011;63979;55.644;37.734;2024-03-29T04:49:59;13.52;;;5.53;;
75408;SDS011;63979;55.644;37.734;2024-03-29T04:55:00;12.02;;;5.80;;
75408;SDS011;63979;55.644;37.734;2024-03-29T05:00:01;9.32;;;5.68;;
75408;SDS011;63979;55.644;37.734;2024-03-29T05:05:04;8.38;;;5.28;;
75408;SDS011;63979;55.644;37.734;2024-03-29T05:10:05;10.25;;;4.38;;
75408;SDS011;63979;55.644;37.734;2024-03-29T05:15:08;10.35;;;4.43;;
75408;SDS011;63979;55.644;37.734;2024-03-29T05:20:09;8.68;;;4.35;;
75408;SDS011;63979;55.644;37.734;2024-03-29T05:25:10;10.57;;;5.10;;
75408;SDS011;63979;55.644;37.734;2024-03-29T05:30:11;13.23;;;4.30;;
75408;SDS011;63979;55.644;37.734;2024-03-29T05:35:13;8.48;;;4.70;;
75408;SDS011;63979;55.644;37.734;2024-03-29T05:40:14;11.85;;;5.88;;
75408;SDS011;63979;55.644;37.734;2024-03-29T05:45:28;11.80;;;5.35;;
75408;SDS011;63979;55.644;37.734;2024-03-29T05:50:30;11.43;;;5.05;;
75408;SDS011;63979;55.644;37.734;2024-03-29T05:55:33;15.50;;;4.32;;
75408;SDS011;63979;55.644;37.734;2024-03-29T06:00:34;16.77;;;5.40;;
75408;SDS011;63979;55.644;37.734;2024-03-29T06:05:35;9.25;;;5.10;;
75408;SDS011;63979;55.644;37.734;2024-03-29T06:10:36;10.63;;;4.75;;
75408;SDS011;63979;55.644;37.734;2024-03-29T06:15:37;13.57;;;4.57;;
75408;SDS011;63979;55.644;37.734;2024-03-29T06:20:57;11.68;;;5.40;;
75408;SDS011;63979;55.644;37.734;2024-03-29T06:25:58;7.38;;;3.35;;
75408;SDS011;63979;55.644;37.734;2024-03-29T06:30:58;9.25;;;3.90;;
75408;SDS011;63979;55.644;37.734;2024-03-29T06:36:02;7.63;;;4.68;;
75408;SDS011;63979;55.644;37.734;2024-03-29T06:41:03;8.55;;;4.15;;
75408;SDS011;63979;55.644;37.734;2024-03-29T06:46:04;17.13;;;4.20;;
75408;SDS011;63979;55.644;37.734;2024-03-29T06:51:06;13.00;;;4.00;;
75408;SDS011;63979;55.644;37.734;2024-03-29T06:56:25;8.60;;;3.33;;
75408;SDS011;63979;55.644;37.734;2024-03-29T07:01:26;5.20;;;3.83;;
75408;SDS011;63979;55.644;37.734;2024-03-29T07:06:27;6.63;;;3.85;;
75408;SDS011;63979;55.644;37.734;2024-03-29T07:11:27;8.68;;;3.97;;
75408;SDS011;63979;55.644;37.734;2024-03-29T07:16:28;3.75;;;2.92;;
75408;SDS011;63979;55.644;37.734;2024-03-29T07:21:30;12.63;;;3.95;;
75408;SDS011;63979;55.644;37.734;2024-03-29T07:26:31;6.10;;;3.72;;
75408;SDS011;63979;55.644;37.734;2024-03-29T07:31:32;7.70;;;3.92;;
75408;SDS011;63979;55.644;37.734;2024-03-29T07:36:34;7.18;;;4.10;;
75408;SDS011;63979;55.644;37.734;2024-03-29T07:41:36;10.25;;;4.57;;
75408;SDS011;63979;55.644;37.734;2024-03-29T07:46:37;10.45;;;5.05;;
75408;SDS011;63979;55.644;37.734;2024-03-29T07:51:40;7.72;;;3.38;;
75408;SDS011;63979;55.644;37.734;2024-03-29T07:56:41;8.63;;;3.95;;
75408;SDS011;63979;55.644;37.734;2024-03-29T08:01:42;11.77;;;4.00;;
75408;SDS011;63979;55.644;37.734;2024-03-29T08:06:43;7.53;;;4.05;;
75408;SDS011;63979;55.644;37.734;2024-03-29T08:11:44;7.85;;;5.13;;
75408;SDS011;63979;55.644;37.734;2024-03-29T08:16:45;8.88;;;5.53;;
75408;SDS011;63979;55.644;37.734;2024-03-29T08:21:46;10.68;;;4.90;;
75408;SDS011;63979;55.644;37.734;2024-03-29T08:26:47;9.27;;;5.65;;
75408;SDS011;63979;55.644;37.734;2024-03-29T08:31:48;10.43;;;5.47;;
75408;SDS011;63979;55.644;37.734;2024-03-29T08:36:49;8.07;;;4.72;;
75408;SDS011;63979;55.644;37.734;2024-03-29T08:41:50;8.68;;;4.72;;
75408;SDS011;63979;55.644;37.734;2024-03-29T08:46:51;5.28;;;3.72;;
75408;SDS011;63979;55.644;37.734;2024-03-29T08:51:53;8.77;;;4.55;;
75408;SDS011;63979;55.644;37.734;2024-03-29T08:56:55;7.45;;;3.85;;
75408;SDS011;63979;55.644;37.734;2024-03-29T09:02:03;8.75;;;5.53;;
75408;SDS011;63979;55.644;37.734;2024-03-29T09:07:06;6.35;;;4.38;;
75408;SDS011;63979;55.644;37.734;2024-03-29T09:12:10;9.25;;;5.18;;
75408;SDS011;63979;55.644;37.734;2024-03-29T09:17:11;7.57;;;4.82;;
75408;SDS011;63979;55.644;37.734;2024-03-29T09:22:12;5.65;;;4.07;;
75408;SDS011;63979;55.644;37.734;2024-03-29T09:27:13;7.90;;;5.25;;
75408;SDS011;63979;55.644;37.734;2024-03-29T09:32:14;11.00;;;4.43;;
75408;SDS011;63979;55.644;37.734;2024-03-29T09:37:20;10.25;;;5.10;;
75408;SDS011;63979;55.644;37.734;2024-03-29T09:42:21;7.70;;;4.95;;
75408;SDS011;63979;55.644;37.734;2024-03-29T09:47:27;9.63;;;5.55;;
75408;SDS011;63979;55.644;37.734;2024-03-29T09:52:28;9.43;;;5.43;;
75408;SDS011;63979;55.644;37.734;2024-03-29T09:57:29;7.95;;;5.63;;
75408;SDS011;63979;55.644;37.734;2024-03-29T10:02:30;10.05;;;5.68;;
75408;SDS011;63979;55.644;37.734;2024-03-29T10:07:33;10.35;;;5.95;;
75408;SDS011;63979;55.644;37.734;2024-03-29T10:12:36;9.18;;;5.65;;
75408;SDS011;63979;55.644;37.734;2024-03-29T10:17:38;10.88;;;6.03;;
75408;SDS011;63979;55.644;37.734;2024-03-29T10:22:42;11.48;;;6.30;;
75408;SDS011;63979;55.644;37.734;2024-03-29T10:27:44;16.30;;;6.85;;
75408;SDS011;63979;55.644;37.734;2024-03-29T10:32:45;13.00;;;6.80;;
75408;SDS011;63979;55.644;37.734;2024-03-29T10:37:46;13.52;;;6.90;;
75408;SDS011;63979;55.644;37.734;2024-03-29T10:42:47;9.65;;;5.93;;
75408;SDS011;63979;55.644;37.734;2024-03-29T10:47:49;10.65;;;6.50;;
75408;SDS011;63979;55.644;37.734;2024-03-29T10:52:53;9.20;;;6.47;;
75408;SDS011;63979;55.644;37.734;2024-03-29T10:57:54;13.05;;;6.82;;
75408;SDS011;63979;55.644;37.734;2024-03-29T11:03:14;15.13;;;7.50;;
75408;SDS011;63979;55.644;37.734;2024-03-29T11:08:34;18.45;;;7.28;;
75408;SDS011;63979;55.644;37.734;2024-03-29T11:18:55;15.20;;;6.95;;
75408;SDS011;63979;55.644;37.734;2024-03-29T11:23:57;11.13;;;7.50;;
75408;SDS011;63979;55.644;37.734;2024-03-29T11:29:04;11.30;;;7.35;;
75408;SDS011;63979;55.644;37.734;2024-03-29T11:34:08;15.13;;;7.57;;
75408;SDS011;63979;55.644;37.734;2024-03-29T11:39:09;10.77;;;6.53;;
75408;SDS011;63979;55.644;37.734;2024-03-29T11:44:26;18.60;;;8.23;;
75408;SDS011;63979;55.644;37.734;2024-03-29T11:49:27;11.88;;;6.97;;
75408;SDS011;63979;55.644;37.734;2024-03-29T11:54:28;11.15;;;7.93;;
75408;SDS011;63979;55.644;37.734;2024-03-29T11:59:36;14.18;;;8.75;;
75408;SDS011;63979;55.644;37.734;2024-03-29T12:04:39;12.15;;;8.88;;
75408;SDS011;63979;55.644;37.734;2024-03-29T12:09:40;21.67;;;9.43;;
75408;SDS011;63979;55.644;37.734;2024-03-29T12:19:42;13.68;;;8.50;;
75408;SDS011;63979;55.644;37.734;2024-03-29T12:24:44;14.48;;;8.98;;
75408;SDS011;63979;55.644;37.734;2024-03-29T12:29:45;11.38;;;9.27;;
75408;SDS011;63979;55.644;37.734;2024-03-29T12:34:46;17.83;;;10.52;;
75408;SDS011;63979;55.644;37.734;2024-03-29T12:39:47;15.40;;;9.88;;
75408;SDS011;63979;55.644;37.734;2024-03-29T12:45:16;17.67;;;9.60;;
75408;SDS011;63979;55.644;37.734;2024-03-29T12:50:24;16.92;;;10.57;;
75408;SDS011;63979;55.644;37.734;2024-03-29T12:55:27;18.17;;;10.77;;
75408;SDS011;63979;55.644;37.734;2024-03-29T13:00:35;17.55;;;9.85;;
75408;SDS011;63979;55.644;37.734;2024-03-29T13:05:37;15.70;;;9.77;;
75408;SDS011;63979;55.644;37.734;2024-03-29T13:10:43;16.67;;;9.75;;
75408;SDS011;63979;55.644;37.734;2024-03-29T13:15:45;15.90;;;9.63;;
75408;SDS011;63979;55.644;37.734;2024-03-29T13:20:47;16.83;;;9.93;;
75408;SDS011;63979;55.644;37.734;2024-03-29T13:25:48;18.30;;;10.32;;
75408;SDS011;63979;55.644;37.734;2024-03-29T13:30:49;20.55;;;10.20;;
75408;SDS011;63979;55.644;37.734;2024-03-29T13:35:52;25.92;;;9.75;;
75408;SDS011;63979;55.644;37.734;2024-03-29T13:40:54;16.25;;;9.77;;
75408;SDS011;63979;55.644;37.734;2024-03-29T13:45:56;17.58;;;9.30;;
75408;SDS011;63979;55.644;37.734;2024-03-29T13:50:59;17.02;;;10.60;;
75408;SDS011;63979;55.644;37.734;2024-03-29T13:56:01;18.65;;;9.73;;
75408;SDS011;63979;55.644;37.734;2024-03-29T14:01:03;19.30;;;10.50;;
75408;SDS011;63979;55.644;37.734;2024-03-29T14:06:05;20.70;;;9.27;;
75408;SDS011;63979;55.644;37.734;2024-03-29T14:16:07;16.02;;;8.63;;
75408;SDS011;63979;55.644;37.734;2024-03-29T14:21:08;18.35;;;9.43;;
75408;SDS011;63979;55.644;37.734;2024-03-29T14:26:08;19.33;;;9.77;;
75408;SDS011;63979;55.644;37.734;2024-03-29T14:31:09;19.10;;;10.70;;
75408;SDS011;63979;55.644;37.734;2024-03-29T14:36:10;18.75;;;9.75;;
75408;SDS011;63979;55.644;37.734;2024-03-29T14:41:11;13.98;;;8.60;;
75408;SDS011;63979;55.644;37.734;2024-03-29T14:46:13;18.77;;;9.90;;
75408;SDS011;63979;55.644;37.734;2024-03-29T14:51:15;16.15;;;9.02;;
75408;SDS011;63979;55.644;37.734;2024-03-29T14:56:19;19.80;;;9.48;;
75408;SDS011;63979;55.644;37.734;2024-03-29T15:01:23;18.27;;;9.95;;
75408;SDS011;63979;55.644;37.734;2024-03-29T15:06:25;19.00;;;10.40;;
75408;SDS011;63979;55.644;37.734;2024-03-29T15:11:28;19.25;;;11.32;;
75408;SDS011;63979;55.644;37.734;2024-03-29T15:16:28;17.92;;;10.15;;
75408;SDS011;63979;55.644;37.734;2024-03-29T15:21:29;17.83;;;10.50;;
75408;SDS011;63979;55.644;37.734;2024-03-29T15:26:31;24.15;;;10.73;;
75408;SDS011;63979;55.644;37.734;2024-03-29T15:31:37;21.88;;;10.93;;
75408;SDS011;63979;55.644;37.734;2024-03-29T15:36:42;18.48;;;9.90;;
75408;SDS011;63979;55.644;37.734;2024-03-29T15:41:42;18.23;;;9.80;;
75408;SDS011;63979;55.644;37.734;2024-03-29T15:46:44;24.25;;;10.80;;
75408;SDS011;63979;55.644;37.734;2024-03-29T15:51:45;20.13;;;10.48;;
75408;SDS011;63979;55.644;37.734;2024-03-29T15:56:46;20.75;;;10.60;;
75408;SDS011;63979;55.644;37.734;2024-03-29T16:01:53;23.20;;;11.55;;
75408;SDS011;63979;55.644;37.734;2024-03-29T16:06:55;20.83;;;10.98;;
75408;SDS011;63979;55.644;37.734;2024-03-29T16:11:56;19.58;;;11.27;;
75408;SDS011;63979;55.644;37.734;2024-03-29T16:16:57;24.45;;;10.95;;
75408;SDS011;63979;55.644;37.734;2024-03-29T16:21:57;19.83;;;10.20;;
75408;SDS011;63979;55.644;37.734;2024-03-29T16:26:58;23.95;;;11.13;;
75408;SDS011;63979;55.644;37.734;2024-03-29T16:32:02;19.98;;;10.18;;
75408;SDS011;63979;55.644;37.734;2024-03-29T16:37:09;20.83;;;11.63;;
75408;SDS011;63979;55.644;37.734;2024-03-29T16:42:10;20.85;;;11.45;;
75408;SDS011;63979;55.644;37.734;2024-03-29T16:47:11;16.67;;;10.23;;
75408;SDS011;63979;55.644;37.734;2024-03-29T16:52:12;18.30;;;10.20;;
75408;SDS011;63979;55.644;37.734;2024-03-29T16:57:15;19.30;;;11.38;;
75408;SDS011;63979;55.644;37.734;2024-03-29T17:02:16;22.95;;;11.85;;
75408;SDS011;63979;55.644;37.734;2024-03-29T17:07:18;23.23;;;11.23;;
75408;SDS011;63979;55.644;37.734;2024-03-29T17:12:19;22.60;;;11.35;;
75408;SDS011;63979;55.644;37.734;2024-03-29T17:17:20;19.45;;;10.95;;
75408;SDS011;63979;55.644;37.734;2024-03-29T17:22:22;21.52;;;11.07;;
75408;SDS011;63979;55.644;37.734;2024-03-29T17:27:23;22.77;;;11.55;;
75408;SDS011;63979;55.644;37.734;2024-03-29T17:32:24;23.27;;;10.43;;
75408;SDS011;63979;55.644;37.734;2024-03-29T17:37:25;19.88;;;12.15;;
75408;SDS011;63979;55.644;37.734;2024-03-29T17:42:26;25.85;;;11.77;;
75408;SDS011;63979;55.644;37.734;2024-03-29T17:47:27;18.58;;;11.27;;
75408;SDS011;63979;55.644;37.734;2024-03-29T17:52:28;26.08;;;11.35;;
75408;SDS011;63979;55.644;37.734;2024-03-29T17:57:28;18.73;;;10.30;;
75408;SDS011;63979;55.644;37.734;2024-03-29T18:02:30;21.58;;;11.95;;
75408;SDS011;63979;55.644;37.734;2024-03-29T18:07:31;20.10;;;10.95;;
75408;SDS011;63979;55.644;37.734;2024-03-29T18:12:32;27.40;;;12.10;;
75408;SDS011;63979;55.644;37.734;2024-03-29T18:17:32;22.50;;;11.73;;
75408;SDS011;63979;55.644;37.734;2024-03-29T18:22:36;20.70;;;12.00;;
75408;SDS011;63979;55.644;37.734;2024-03-29T18:27:36;26.35;;;14.27;;
75408;SDS011;63979;55.644;37.734;2024-03-29T18:32:37;21.42;;;11.27;;
75408;SDS011;63979;55.644;37.734;2024-03-29T18:37:39;24.65;;;11.75;;
75408;SDS011;63979;55.644;37.734;2024-03-29T18:42:40;21.38;;;12.05;;
75408;SDS011;63979;55.644;37.734;2024-03-29T18:47:40;29.48;;;14.00;;
75408;SDS011;63979;55.644;37.734;2024-03-29T18:52:45;26.65;;;11.90;;
75408;SDS011;63979;55.644;37.734;2024-03-29T18:57:48;21.75;;;12.02;;
75408;SDS011;63979;55.644;37.734;2024-03-29T19:02:49;25.23;;;12.98;;
75408;SDS011;63979;55.644;37.734;2024-03-29T19:07:50;21.63;;;12.95;;
75408;SDS011;63979;55.644;37.734;2024-03-29T19:12:51;21.48;;;11.80;;
75408;SDS011;63979;55.644;37.734;2024-03-29T19:17:55;23.55;;;11.48;;
75408;SDS011;63979;55.644;37.734;2024-03-29T19:22:56;22.17;;;11.85;;
75408;SDS011;63979;55.644;37.734;2024-03-29T19:27:57;25.83;;;12.15;;
75408;SDS011;63979;55.644;37.734;2024-03-29T19:32:58;20.35;;;11.65;;
75408;SDS011;63979;55.644;37.734;2024-03-29T19:38:03;24.25;;;13.02;;
75408;SDS011;63979;55.644;37.734;2024-03-29T19:43:04;18.75;;;10.40;;
75408;SDS011;63979;55.644;37.734;2024-03-29T19:48:06;18.67;;;10.98;;
75408;SDS011;63979;55.644;37.734;2024-03-29T19:53:08;23.35;;;11.90;;
75408;SDS011;63979;55.644;37.734;2024-03-29T19:58:09;17.45;;;11.40;;
75408;SDS011;63979;55.644;37.734;2024-03-29T20:03:11;18.77;;;9.18;;
75408;SDS011;63979;55.644;37.734;2024-03-29T20:08:13;15.75;;;8.75;;
75408;SDS011;63979;55.644;37.734;2024-03-29T20:13:14;18.58;;;9.35;;
75408;SDS011;63979;55.644;37.734;2024-03-29T20:18:15;14.15;;;8.45;;
75408;SDS011;63979;55.644;37.734;2024-03-29T20:23:16;14.45;;;8.65;;
75408;SDS011;63979;55.644;37.734;2024-03-29T20:28:17;16.83;;;8.30;;
75408;SDS011;63979;55.644;37.734;2024-03-29T20:33:19;12.13;;;6.88;;
75408;SDS011;63979;55.644;37.734;2024-03-29T20:38:19;8.95;;;6.43;;
75408;SDS011;63979;55.644;37.734;2024-03-29T20:43:20;13.85;;;5.88;;
75408;SDS011;63979;55.644;37.734;2024-03-29T20:48:22;7.18;;;5.65;;
75408;SDS011;63979;55.644;37.734;2024-03-29T20:53:23;4.30;;;2.78;;
75408;SDS011;63979;55.644;37.734;2024-03-29T20:58:24;5.40;;;2.85;;
75408;SDS011;63979;55.644;37.734;2024-03-29T21:03:25;2.88;;;1.60;;
75408;SDS011;63979;55.644;37.734;2024-03-29T21:08:45;1.92;;;1.65;;
75408;SDS011;63979;55.644;37.734;2024-03-29T21:13:46;2.63;;;1.60;;
75408;SDS011;63979;55.644;37.734;2024-03-29T21:18:48;2.33;;;1.90;;
75408;SDS011;63979;55.644;37.734;2024-03-29T21:23:49;2.40;;;1.75;;
75408;SDS011;63979;55.644;37.734;2024-03-29T21:28:50;3.97;;;1.70;;
75408;SDS011;63979;55.644;37.734;2024-03-29T21:33:50;2.03;;;1.20;;
75408;SDS011;63979;55.644;37.734;2024-03-29T21:38:51;2.17;;;1.40;;
75408;SDS011;63979;55.644;37.734;2024-03-29T21:43:52;1.60;;;1.48;;
75408;SDS011;63979;55.644;37.734;2024-03-29T21:48:53;2.40;;;1.60;;
75408;SDS011;63979;55.644;37.734;2024-03-29T21:53:54;3.65;;;1.58;;
75408;SDS011;63979;55.644;37.734;2024-03-29T21:58:55;1.65;;;1.13;;
75408;SDS011;63979;55.644;37.734;2024-03-29T22:03:56;1.48;;;1.38;;
75408;SDS011;63979;55.644;37.734;2024-03-29T22:08:57;2.85;;;1.67;;
75408;SDS011;63979;55.644;37.734;2024-03-29T22:13:58;3.35;;;1.00;;
75408;SDS011;63979;55.644;37.734;2024-03-29T22:18:59;3.47;;;1.50;;
75408;SDS011;63979;55.644;37.734;2024-03-29T22:24:00;2.90;;;1.75;;
75408;SDS011;63979;55.644;37.734;2024-03-29T22:29:02;1.77;;;1.40;;
75408;SDS011;63979;55.644;37.734;2024-03-29T22:34:03;1.73;;;1.33;;
75408;SDS011;63979;55.644;37.734;2024-03-29T22:39:04;1.85;;;1.45;;
75408;SDS011;63979;55.644;37.734;2024-03-29T22:44:06;2.70;;;1.73;;
75408;SDS011;63979;55.644;37.734;2024-03-29T22:49:06;1.83;;;1.63;;
75408;SDS011;63979;55.644;37.734;2024-03-29T22:54:07;2.38;;;1.27;;
75408;SDS011;63979;55.644;37.734;2024-03-29T22:59:08;2.92;;;1.60;;
75408;SDS011;63979;55.644;37.734;2024-03-29T23:04:09;3.22;;;2.10;;
75408;SDS011;63979;55.644;37.734;2024-03-29T23:09:10;2.65;;;1.50;;
75408;SDS011;63979;55.644;37.734;2024-03-29T23:14:11;2.58;;;1.45;;
75408;SDS011;63979;55.644;37.734;2024-03-29T23:19:12;2.83;;;1.70;;
75408;SDS011;63979;55.644;37.734;2024-03-29T23:24:13;2.17;;;1.63;;
75408;SDS011;63979;55.644;37.734;2024-03-29T23:29:14;5.20;;;2.42;;
75408;SDS011;63979;55.644;37.734;2024-03-29T23:34:15;1.52;;;1.33;;
75408;SDS011;63979;55.644;37.734;2024-03-29T23:39:16;2.42;;;1.90;;
75408;SDS011;63979;55.644;37.734;2024-03-29T23:44:17;4.32;;;1.80;;
75408;SDS011;63979;55.644;37.734;2024-03-29T23:49:18;3.10;;;1.98;;
75408;SDS011;63979;55.644;37.734;2024-03-29T23:54:19;4.00;;;2.17;;
75408;SDS011;63979;55.644;37.734;2024-03-29T23:59:19;3.17;;;2.03;;
